Time;durP1;ratioP1;P1;durP2;ratioP2;P2;SDS_P1;SDS_P2;PMS_P1;PMS_P2;Temp;Humidity;BMP_temperature;BMP_pressure;BME280_temperature;BME280_humidity;BME280_pressure;Samples;Min_cycle;Max_cycle;Signal;HPM_P1;HPM_P2
2021/03/06 00:03:05;;;;;;;0.50;0.10;;;1.20;99.90;;;;;;10203096;28;20050;-48
2021/03/06 00:08:26;;;;;;;1.35;0.50;;;1.20;99.90;;;;;;10204705;28;20519;-48
2021/03/06 00:13:47;;;;;;;2.15;0.57;;;1.10;99.90;;;;;;10209431;28;21806;-49
2021/03/06 00:19:08;;;;;;;1.67;0.60;;;1.00;99.90;;;;;;10208405;28;20119;-48
2021/03/06 00:24:29;;;;;;;1.08;0.55;;;1.00;99.90;;;;;;10203842;28;20464;-48
2021/03/06 00:29:50;;;;;;;1.10;0.40;;;1.00;99.90;;;;;;10205832;28;20043;-49
2021/03/06 00:35:12;;;;;;;1.27;0.50;;;0.90;99.90;;;;;;10204167;28;20032;-48
2021/03/06 00:40:33;;;;;;;0.98;0.52;;;0.90;99.90;;;;;;10204981;28;20117;-49
2021/03/06 00:45:53;;;;;;;3.13;0.60;;;0.80;99.90;;;;;;10204238;28;20032;-49
2021/03/06 00:51:14;;;;;;;2.08;1.10;;;0.80;99.90;;;;;;10199674;28;22744;-49
2021/03/06 00:56:35;;;;;;;2.40;1.60;;;0.80;99.90;;;;;;10207002;28;20046;-49
2021/03/06 01:01:56;;;;;;;0.73;0.45;;;0.70;99.90;;;;;;10193585;28;20051;-49
2021/03/06 01:07:17;;;;;;;2.00;0.60;;;0.70;99.90;;;;;;10201074;28;20069;-49
2021/03/06 01:12:38;;;;;;;1.20;0.50;;;0.70;99.90;;;;;;10197100;28;20398;-49
2021/03/06 01:17:59;;;;;;;1.73;0.55;;;0.80;99.90;;;;;;10202811;28;20487;-49
2021/03/06 01:23:21;;;;;;;4.03;0.73;;;0.70;99.90;;;;;;10200439;28;20047;-49
2021/03/06 01:28:42;;;;;;;1.85;0.70;;;0.70;99.90;;;;;;10207153;28;20400;-49
2021/03/06 01:34:03;;;;;;;1.83;0.28;;;0.60;99.90;;;;;;10196215;28;20154;-49
2021/03/06 01:39:24;;;;;;;2.83;1.05;;;0.60;99.90;;;;;;10202414;28;20052;-49
2021/03/06 01:44:45;;;;;;;0.55;0.30;;;0.50;99.90;;;;;;10205272;28;20690;-49
2021/03/06 01:50:09;;;;;;;1.55;0.88;;;0.50;99.90;;;;;;10202301;28;20055;-49
2021/03/06 01:55:32;;;;;;;0.75;0.50;;;0.50;99.90;;;;;;10200554;28;20462;-49
2021/03/06 02:00:54;;;;;;;0.73;0.40;;;0.50;99.90;;;;;;10203557;28;20498;-49
2021/03/06 02:06:16;;;;;;;0.65;0.35;;;0.50;99.90;;;;;;10198759;28;20419;-49
2021/03/06 02:11:48;;;;;;;1.00;0.68;;;0.50;99.90;;;;;;10201017;28;20411;-49
2021/03/06 02:17:19;;;;;;;1.40;0.73;;;0.40;99.90;;;;;;10201210;28;20051;-49
2021/03/06 02:23:08;;;;;;;1.70;0.70;;;0.40;99.90;;;;;;10201405;28;20043;-49
2021/03/06 02:28:51;;;;;;;0.67;0.30;;;0.40;99.90;;;;;;10198250;28;20051;-49
2021/03/06 02:34:16;;;;;;;1.70;0.70;;;0.30;99.90;;;;;;10203312;28;20044;-49
2021/03/06 02:39:43;;;;;;;2.05;0.80;;;0.30;99.90;;;;;;10196402;28;20045;-48
2021/03/06 02:45:07;;;;;;;2.33;1.10;;;0.30;99.90;;;;;;10197406;28;20042;-49
2021/03/06 02:50:28;;;;;;;9.63;1.58;;;0.20;99.90;;;;;;10198121;28;20185;-49
2021/03/06 02:55:49;;;;;;;4.28;1.08;;;0.20;99.90;;;;;;10203170;28;20106;-49
2021/03/06 03:01:21;;;;;;;1.95;0.80;;;0.10;99.90;;;;;;10197323;28;20165;-49
2021/03/06 03:06:48;;;;;;;0.52;0.30;;;0.20;99.90;;;;;;10201781;28;20054;-49
2021/03/06 03:12:13;;;;;;;3.08;1.77;;;0.10;99.90;;;;;;10203167;28;20123;-49
2021/03/06 03:17:42;;;;;;;2.00;0.60;;;0.00;99.90;;;;;;10198992;28;20090;-49
2021/03/06 03:23:11;;;;;;;1.08;0.52;;;-0.10;99.90;;;;;;10196490;28;20043;-49
2021/03/06 03:28:33;;;;;;;3.10;0.85;;;0.00;99.90;;;;;;10197672;28;20465;-49
2021/03/06 03:33:55;;;;;;;0.88;0.40;;;0.00;99.90;;;;;;10199356;28;20102;-49
2021/03/06 03:39:17;;;;;;;1.67;0.55;;;-0.10;99.90;;;;;;10201691;28;20027;-49
2021/03/06 03:44:38;;;;;;;2.00;0.73;;;0.00;99.90;;;;;;10206615;28;20050;-49
2021/03/06 03:49:59;;;;;;;2.38;0.77;;;-0.20;99.90;;;;;;10205872;28;20085;-49
2021/03/06 03:55:20;;;;;;;1.52;0.63;;;-0.20;99.90;;;;;;10211343;28;20035;-49
2021/03/06 04:00:41;;;;;;;2.03;0.55;;;-0.20;99.90;;;;;;10206700;28;20050;-49
2021/03/06 04:06:02;;;;;;;1.83;0.82;;;-0.20;99.90;;;;;;10206130;28;20038;-49
2021/03/06 04:11:23;;;;;;;1.63;0.60;;;-0.20;99.90;;;;;;10205193;28;20055;-49
2021/03/06 04:16:45;;;;;;;1.80;0.45;;;-0.20;99.90;;;;;;10203832;28;20479;-49
2021/03/06 04:22:06;;;;;;;3.35;0.90;;;-0.30;99.90;;;;;;10205385;28;20051;-49
2021/03/06 04:27:27;;;;;;;3.00;1.77;;;-0.40;99.90;;;;;;10205330;28;20046;-49
2021/03/06 04:32:48;;;;;;;1.17;0.50;;;-0.30;99.90;;;;;;10205884;28;20055;-49
2021/03/06 04:38:09;;;;;;;1.33;0.60;;;-0.30;99.90;;;;;;10200159;28;20512;-49
2021/03/06 04:43:30;;;;;;;1.55;0.45;;;-0.40;99.90;;;;;;10202604;28;20337;-49
2021/03/06 04:48:51;;;;;;;0.90;0.63;;;-0.50;99.90;;;;;;10198030;28;20039;-49
2021/03/06 04:54:12;;;;;;;2.45;1.00;;;-0.40;99.90;;;;;;10202700;28;20055;-49
2021/03/06 04:59:33;;;;;;;0.90;0.75;;;-0.40;99.90;;;;;;10203392;28;20448;-49
2021/03/06 05:04:54;;;;;;;0.90;0.50;;;-0.40;99.90;;;;;;10207088;28;20530;-49
2021/03/06 05:10:15;;;;;;;5.68;1.40;;;-0.50;99.90;;;;;;10204283;28;20047;-49
2021/03/06 05:15:36;;;;;;;1.85;0.75;;;-0.50;99.90;;;;;;10200467;28;20075;-49
2021/03/06 05:20:58;;;;;;;1.42;0.88;;;-0.60;99.90;;;;;;10203498;28;20046;-49
2021/03/06 05:26:19;;;;;;;1.80;0.47;;;-0.60;99.90;;;;;;10201779;28;20302;-49
2021/03/06 05:31:40;;;;;;;2.38;0.73;;;-0.70;99.90;;;;;;10196570;28;20771;-49
2021/03/06 05:37:01;;;;;;;0.40;0.35;;;-0.70;99.90;;;;;;10193113;28;20043;-50
2021/03/06 05:42:23;;;;;;;1.38;0.50;;;-0.70;99.90;;;;;;10204232;28;20338;-49
2021/03/06 05:47:44;;;;;;;1.48;0.55;;;-0.70;99.90;;;;;;10205554;28;20039;-49
2021/03/06 05:53:14;;;;;;;1.20;0.63;;;-0.80;99.90;;;;;;10198732;28;20123;-50
2021/03/06 05:58:36;;;;;;;0.88;0.38;;;-0.80;99.90;;;;;;10206228;28;20039;-49
2021/03/06 06:04:05;;;;;;;1.33;0.57;;;-0.80;99.90;;;;;;10206056;28;20043;-50
2021/03/06 06:09:26;;;;;;;;;;;-0.90;99.90;;;;;;10198974;28;20165;-49
2021/03/06 06:14:47;;;;;;;0.93;0.43;;;-1.00;99.90;;;;;;10202587;28;19954;-50
2021/03/06 06:20:08;;;;;;;4.60;0.65;;;-0.90;99.90;;;;;;10201050;28;20403;-49
2021/03/06 06:25:31;;;;;;;3.33;1.40;;;-0.90;99.90;;;;;;10197873;28;20694;-50
2021/03/06 06:31:09;;;;;;;2.65;1.05;;;-0.90;99.90;;;;;;10209209;28;20070;-49
2021/03/06 06:36:38;;;;;;;1.73;0.82;;;-0.70;99.90;;;;;;10203710;28;20058;-49
2021/03/06 06:42:00;;;;;;;0.80;0.47;;;-0.70;99.90;;;;;;10199891;28;21455;-50
2021/03/06 06:47:23;;;;;;;2.00;0.68;;;-0.80;99.90;;;;;;10198202;28;20055;-49
2021/03/06 06:52:44;;;;;;;1.23;0.80;;;-0.70;99.90;;;;;;10197812;28;20070;-49
2021/03/06 06:58:06;;;;;;;6.25;1.30;;;-0.70;99.90;;;;;;10201768;28;20035;-50
2021/03/06 07:03:27;;;;;;;4.20;1.35;;;-0.60;99.90;;;;;;10195868;28;20106;-49
2021/03/06 07:08:48;;;;;;;6.18;1.83;;;-0.50;99.90;;;;;;10198112;28;20656;-50
2021/03/06 07:14:09;;;;;;;5.20;2.00;;;-0.30;99.90;;;;;;10206057;28;20075;-49
2021/03/06 07:19:31;;;;;;;7.05;2.25;;;-0.30;99.90;;;;;;10215476;28;20114;-49
2021/03/06 07:24:52;;;;;;;7.63;2.50;;;-0.10;99.90;;;;;;10218553;28;20071;-49
2021/03/06 07:30:16;;;;;;;3.25;2.10;;;0.00;99.90;;;;;;10216063;28;20507;-49
2021/03/06 07:35:39;;;;;;;6.25;2.15;;;0.00;99.90;;;;;;10219201;28;20078;-49
2021/03/06 07:41:05;;;;;;;5.50;1.98;;;0.10;99.90;;;;;;10217409;28;20066;-49
2021/03/06 07:46:27;;;;;;;2.47;1.20;;;0.30;99.90;;;;;;10217363;28;20044;-49
2021/03/06 07:51:48;;;;;;;2.00;1.35;;;0.30;99.90;;;;;;10215281;28;20051;-49
2021/03/06 07:57:09;;;;;;;3.22;1.42;;;0.40;99.90;;;;;;10219420;29;20054;-49
2021/03/06 08:02:39;;;;;;;5.50;1.13;;;0.60;99.90;;;;;;10215630;28;20047;-49
2021/03/06 08:08:00;;;;;;;3.00;1.67;;;0.90;99.90;;;;;;10221985;28;20484;-49
2021/03/06 08:13:40;;;;;;;1.73;0.98;;;1.10;99.90;;;;;;10218912;28;20055;-49
2021/03/06 08:19:22;;;;;;;2.25;1.08;;;1.40;99.90;;;;;;10216656;28;20081;-49
2021/03/06 08:24:44;;;;;;;3.10;1.27;;;1.60;99.90;;;;;;10216497;28;20462;-49
2021/03/06 08:30:05;;;;;;;1.52;0.77;;;1.90;99.90;;;;;;10221968;29;20102;-49
2021/03/06 08:35:28;;;;;;;1.95;0.50;;;2.30;99.90;;;;;;10182851;28;20460;-49
2021/03/06 08:40:52;;;;;;;2.20;0.85;;;2.50;99.90;;;;;;10214557;29;20233;-49
2021/03/06 08:46:13;;;;;;;4.40;1.67;;;2.80;99.90;;;;;;10211751;28;20044;-49
2021/03/06 08:51:35;;;;;;;0.93;0.43;;;3.30;99.90;;;;;;10211880;29;20062;-49
2021/03/06 08:56:56;;;;;;;1.15;0.40;;;3.60;99.90;;;;;;10206616;28;20472;-49
2021/03/06 09:02:19;;;;;;;1.48;0.75;;;4.00;99.90;;;;;;10204413;29;20125;-49
2021/03/06 09:07:47;;;;;;;1.48;0.60;;;4.40;99.90;;;;;;10210939;28;20039;-49
2021/03/06 09:13:19;;;;;;;1.23;0.40;;;4.70;99.90;;;;;;10208940;28;20139;-49
2021/03/06 09:18:40;;;;;;;1.73;0.50;;;5.20;99.90;;;;;;10206434;28;20357;-49
2021/03/06 09:24:02;;;;;;;1.65;0.20;;;5.70;99.90;;;;;;10201700;28;20230;-49
2021/03/06 09:29:29;;;;;;;0.70;0.25;;;5.80;99.90;;;;;;10210721;29;20052;-49
2021/03/06 09:34:49;;;;;;;2.78;1.20;;;5.60;99.90;;;;;;10213906;28;20042;-49
2021/03/06 09:40:18;;;;;;;3.60;0.17;;;5.40;99.90;;;;;;10201230;28;20036;-49
2021/03/06 09:45:40;;;;;;;1.08;0.47;;;5.30;99.90;;;;;;10199592;29;20039;-49
2021/03/06 09:51:01;;;;;;;0.95;0.50;;;5.30;99.90;;;;;;10202660;28;20066;-49
2021/03/06 09:56:22;;;;;;;1.25;0.47;;;5.70;99.90;;;;;;10207863;28;20036;-49
2021/03/06 10:01:43;;;;;;;0.90;0.40;;;6.00;99.90;;;;;;10204719;29;20133;-49
2021/03/06 10:07:09;;;;;;;0.47;0.10;;;6.10;99.90;;;;;;10208039;28;20035;-49
2021/03/06 10:12:30;;;;;;;0.35;0.10;;;6.30;99.90;;;;;;10208572;28;20066;-49
2021/03/06 10:17:51;;;;;;;3.78;0.30;;;6.40;99.90;;;;;;10193153;29;20246;-49
2021/03/06 10:23:13;;;;;;;0.63;0.20;;;6.50;99.90;;;;;;10206055;29;20419;-49
2021/03/06 10:28:34;;;;;;;0.50;0.30;;;6.50;99.90;;;;;;10202971;29;20398;-49
2021/03/06 10:33:57;;;;;;;0.80;0.20;;;6.40;99.90;;;;;;10199990;29;20484;-49
2021/03/06 10:39:19;;;;;;;0.50;0.20;;;6.50;99.90;;;;;;10198486;29;20032;-49
2021/03/06 10:44:41;;;;;;;2.60;1.00;;;6.60;99.90;;;;;;10202990;28;20024;-49
2021/03/06 10:50:02;;;;;;;0.70;0.20;;;6.40;99.90;;;;;;10186945;29;20071;-49
2021/03/06 10:55:34;;;;;;;0.00;0.00;;;6.30;99.90;;;;;;10207280;28;20071;-49
2021/03/06 11:00:59;;;;;;;0.22;0.10;;;6.40;99.90;;;;;;10205879;29;20036;-49
2021/03/06 11:06:20;;;;;;;0.15;0.10;;;6.30;99.90;;;;;;10204190;28;20047;-49
2021/03/06 11:11:41;;;;;;;0.10;0.00;;;6.40;99.90;;;;;;10200535;28;20035;-49
2021/03/06 11:17:02;;;;;;;0.32;0.10;;;6.60;99.90;;;;;;10190192;28;20067;-49
2021/03/06 11:22:23;;;;;;;0.45;0.10;;;6.90;99.90;;;;;;10199454;28;20051;-49
2021/03/06 11:27:45;;;;;;;0.20;0.00;;;7.50;99.90;;;;;;10203550;28;20043;-49
2021/03/06 11:33:08;;;;;;;0.10;0.03;;;9.20;98.80;;;;;;10199656;28;20057;-49
2021/03/06 11:38:29;;;;;;;0.30;0.10;;;10.50;95.60;;;;;;10207838;28;20162;-50
2021/03/06 11:43:50;;;;;;;1.00;0.10;;;11.70;86.70;;;;;;10209498;28;20085;-49
2021/03/06 11:49:11;;;;;;;1.60;0.00;;;13.00;76.30;;;;;;10199978;28;20148;-50
2021/03/06 11:54:33;;;;;;;0.10;0.00;;;13.70;65.70;;;;;;10196415;29;20036;-49
2021/03/06 11:59:54;;;;;;;0.30;0.10;;;13.00;69.60;;;;;;10202670;28;20588;-49
2021/03/06 12:05:16;;;;;;;0.25;0.10;;;12.90;68.50;;;;;;10199511;28;20071;-49
2021/03/06 12:10:37;;;;;;;0.88;0.05;;;13.70;62.10;;;;;;10212085;28;20661;-50
2021/03/06 12:15:58;;;;;;;1.75;0.20;;;14.80;59.30;;;;;;10212259;28;20042;-50
2021/03/06 12:21:20;;;;;;;0.68;0.10;;;15.90;53.70;;;;;;10206117;29;20031;-49
2021/03/06 12:26:41;;;;;;;0.70;0.20;;;15.20;53.40;;;;;;10210686;29;20869;-49
2021/03/06 12:32:02;;;;;;;0.25;0.10;;;14.80;54.30;;;;;;10201627;28;20455;-49
2021/03/06 12:37:23;;;;;;;0.52;0.10;;;16.20;50.90;;;;;;10207761;28;20284;-49
2021/03/06 12:42:44;;;;;;;0.60;0.20;;;15.70;48.40;;;;;;10206727;28;20043;-50
2021/03/06 12:48:06;;;;;;;1.60;0.60;;;15.40;53.90;;;;;;10203615;28;20047;-50
2021/03/06 12:53:27;;;;;;;1.23;0.20;;;15.80;50.70;;;;;;10205381;28;20127;-49
2021/03/06 12:58:48;;;;;;;0.40;0.22;;;15.60;50.60;;;;;;10204882;29;20031;-49
2021/03/06 13:04:09;;;;;;;0.88;0.30;;;13.40;53.50;;;;;;10205141;29;20461;-49
2021/03/06 13:09:30;;;;;;;1.15;0.40;;;12.00;61.30;;;;;;10207525;28;20414;-49
2021/03/06 13:14:51;;;;;;;0.60;0.40;;;13.50;59.60;;;;;;10202610;28;20036;-49
2021/03/06 13:20:13;;;;;;;0.60;0.20;;;13.70;56.40;;;;;;10205924;29;20578;-49
2021/03/06 13:25:37;;;;;;;0.75;0.30;;;12.70;58.70;;;;;;10206850;28;20051;-49
2021/03/06 13:30:58;;;;;;;0.68;0.22;;;11.50;68.40;;;;;;10201249;28;20053;-49
2021/03/06 13:36:19;;;;;;;1.80;0.30;;;10.40;75.20;;;;;;10202587;28;20039;-49
2021/03/06 13:41:40;;;;;;;0.63;0.38;;;9.40;88.80;;;;;;10205104;28;20058;-49
2021/03/06 13:47:02;;;;;;;0.60;0.40;;;8.90;95.10;;;;;;10212492;29;20040;-49
2021/03/06 13:52:23;;;;;;;0.43;0.10;;;8.90;96.10;;;;;;10204139;29;20048;-49
2021/03/06 13:57:44;;;;;;;4.50;0.95;;;8.70;96.90;;;;;;10207573;28;20067;-49
2021/03/06 14:03:05;;;;;;;0.45;0.00;;;8.70;96.90;;;;;;10207121;28;20170;-49
2021/03/06 14:08:26;;;;;;;0.45;0.15;;;8.40;99.80;;;;;;10204558;28;20035;-49
2021/03/06 14:13:47;;;;;;;0.15;0.10;;;8.00;99.90;;;;;;10206183;28;20039;-49
2021/03/06 14:19:08;;;;;;;1.58;0.35;;;7.70;99.90;;;;;;10198602;29;20541;-49
2021/03/06 14:24:29;;;;;;;0.40;0.10;;;7.60;99.90;;;;;;10206270;28;22830;-49
2021/03/06 14:29:50;;;;;;;0.32;0.15;;;7.40;99.90;;;;;;10198083;28;20047;-48
2021/03/06 14:35:12;;;;;;;0.70;0.20;;;7.40;99.90;;;;;;10204458;28;20046;-48
2021/03/06 14:40:33;;;;;;;0.90;0.22;;;7.50;99.90;;;;;;10200049;28;20051;-49
2021/03/06 14:45:54;;;;;;;0.75;0.20;;;7.60;99.90;;;;;;10201780;28;20047;-49
2021/03/06 14:51:14;;;;;;;0.70;0.30;;;7.50;99.90;;;;;;10195497;28;20054;-48
2021/03/06 14:56:35;;;;;;;1.10;0.20;;;7.50;99.90;;;;;;10175178;28;20082;-49
2021/03/06 15:01:57;;;;;;;0.30;0.10;;;7.60;99.90;;;;;;10203809;28;20165;-49
2021/03/06 15:07:18;;;;;;;2.25;0.20;;;7.60;99.90;;;;;;10199254;28;20043;-49
2021/03/06 15:12:39;;;;;;;0.70;0.17;;;7.60;99.90;;;;;;10193891;28;20052;-49
2021/03/06 15:18:00;;;;;;;0.52;0.20;;;7.50;99.90;;;;;;10199530;28;20051;-49
2021/03/06 15:23:21;;;;;;;2.30;0.17;;;7.50;99.90;;;;;;10204345;28;20114;-49
2021/03/06 15:28:42;;;;;;;0.28;0.10;;;7.80;99.90;;;;;;10194722;28;20130;-49
2021/03/06 15:34:03;;;;;;;0.63;0.20;;;8.00;99.90;;;;;;10195926;28;20508;-49
2021/03/06 15:39:24;;;;;;;0.40;0.15;;;8.00;99.90;;;;;;10206395;29;20408;-49
2021/03/06 15:44:45;;;;;;;0.17;0.08;;;8.10;99.90;;;;;;10200553;28;20222;-49
2021/03/06 15:50:08;;;;;;;1.80;0.40;;;8.30;99.90;;;;;;10192980;28;20036;-48
2021/03/06 15:55:29;;;;;;;1.17;0.20;;;8.10;99.90;;;;;;10210246;28;20039;-48
2021/03/06 16:00:50;;;;;;;0.80;0.30;;;7.90;99.90;;;;;;10206400;28;20559;-49
2021/03/06 16:06:11;;;;;;;1.13;0.40;;;7.70;99.90;;;;;;10212459;28;20392;-48
2021/03/06 16:11:32;;;;;;;0.47;0.30;;;7.50;99.90;;;;;;10211847;28;20046;-48
2021/03/06 16:16:53;;;;;;;0.60;0.20;;;7.30;99.90;;;;;;10195827;28;20616;-49
2021/03/06 16:22:14;;;;;;;0.63;0.20;;;7.30;99.90;;;;;;10189677;28;20047;-49
2021/03/06 16:27:35;;;;;;;1.65;0.70;;;7.10;99.90;;;;;;10183399;28;20047;-48
2021/03/06 16:32:57;;;;;;;2.83;0.50;;;7.00;99.90;;;;;;10183369;28;20507;-49
2021/03/06 16:38:19;;;;;;;0.60;0.38;;;7.10;99.90;;;;;;10185234;28;20480;-48
2021/03/06 16:43:40;;;;;;;0.65;0.30;;;7.00;99.90;;;;;;10173521;28;21197;-48
2021/03/06 16:49:05;;;;;;;1.08;0.30;;;6.90;99.90;;;;;;10187962;28;20049;-49
2021/03/06 16:54:26;;;;;;;1.88;0.30;;;6.90;99.90;;;;;;10182244;28;20058;-49
2021/03/06 16:59:47;;;;;;;2.80;0.57;;;6.80;99.90;;;;;;10189221;28;20134;-48
2021/03/06 17:05:09;;;;;;;1.33;0.75;;;6.70;99.90;;;;;;10194343;28;20031;-48
2021/03/06 17:10:30;;;;;;;2.10;0.60;;;6.60;99.90;;;;;;10192706;28;20059;-48
2021/03/06 17:15:51;;;;;;;1.83;0.32;;;6.50;99.90;;;;;;10178971;28;20047;-48
2021/03/06 17:21:12;;;;;;;2.25;1.10;;;6.40;99.90;;;;;;10185227;28;20043;-48
2021/03/06 17:26:33;;;;;;;2.08;0.47;;;6.30;99.90;;;;;;10184442;28;20043;-48
2021/03/06 17:31:54;;;;;;;4.68;1.35;;;6.10;99.90;;;;;;10178154;28;20146;-48
2021/03/06 17:37:15;;;;;;;2.90;0.98;;;6.10;99.90;;;;;;10184535;28;20046;-48
2021/03/06 17:42:38;;;;;;;2.55;0.45;;;6.00;99.90;;;;;;10181237;28;20055;-48
2021/03/06 17:48:00;;;;;;;1.60;0.55;;;5.80;99.90;;;;;;10181398;28;20042;-48
2021/03/06 17:53:20;;;;;;;1.38;0.45;;;5.60;99.90;;;;;;10181540;28;20385;-48
2021/03/06 17:58:42;;;;;;;0.77;0.30;;;5.50;99.90;;;;;;10181449;28;20036;-49
2021/03/06 18:04:04;;;;;;;2.00;0.45;;;5.40;99.90;;;;;;10185351;28;20405;-48
2021/03/06 18:09:25;;;;;;;2.28;0.68;;;5.20;99.90;;;;;;10185077;28;20043;-48
2021/03/06 18:14:46;;;;;;;2.78;0.68;;;5.00;99.90;;;;;;10176804;28;20035;-48
2021/03/06 18:20:08;;;;;;;2.08;0.70;;;5.00;99.90;;;;;;10177438;28;20615;-48
2021/03/06 18:25:29;;;;;;;3.13;0.73;;;4.90;99.90;;;;;;10166415;28;20055;-48
2021/03/06 18:30:50;;;;;;;1.50;0.65;;;4.80;99.90;;;;;;10175983;28;21044;-48
2021/03/06 18:36:12;;;;;;;1.10;0.50;;;4.70;99.90;;;;;;10187686;28;20543;-48
2021/03/06 18:41:33;;;;;;;6.72;1.63;;;4.60;99.90;;;;;;10182543;28;20174;-48
2021/03/06 18:46:54;;;;;;;3.65;1.17;;;4.50;99.90;;;;;;10185188;28;20035;-48
2021/03/06 18:52:15;;;;;;;7.90;1.35;;;4.40;99.90;;;;;;10182232;28;20059;-48
2021/03/06 18:57:37;;;;;;;2.47;1.02;;;4.40;99.90;;;;;;10184246;28;20737;-48
2021/03/06 19:03:01;;;;;;;5.72;0.88;;;4.30;99.90;;;;;;10186133;28;20039;-48
2021/03/06 19:08:22;;;;;;;3.17;1.25;;;4.30;99.90;;;;;;10184262;28;20265;-48
2021/03/06 19:13:43;;;;;;;7.13;1.23;;;4.20;99.90;;;;;;10184214;28;20149;-48
2021/03/06 19:19:04;;;;;;;4.35;1.25;;;4.00;99.90;;;;;;10172918;28;20098;-48
2021/03/06 19:24:25;;;;;;;2.42;1.27;;;3.90;99.90;;;;;;10178483;28;20047;-48
2021/03/06 19:29:46;;;;;;;3.60;1.10;;;3.80;99.90;;;;;;10184487;28;20040;-48
2021/03/06 19:35:08;;;;;;;2.60;1.25;;;3.80;99.90;;;;;;10180632;28;20043;-48
2021/03/06 19:40:30;;;;;;;3.75;1.45;;;3.80;99.90;;;;;;10177505;28;20043;-48
2021/03/06 19:45:51;;;;;;;3.13;1.27;;;3.70;99.90;;;;;;10178969;28;20063;-48
2021/03/06 19:51:12;;;;;;;2.42;1.13;;;3.70;99.90;;;;;;10180494;28;20102;-48
2021/03/06 19:56:33;;;;;;;5.80;1.88;;;3.60;99.90;;;;;;10185062;28;20292;-48
2021/03/06 20:01:55;;;;;;;3.30;0.68;;;3.50;99.90;;;;;;10183398;28;20035;-48
2021/03/06 20:07:16;;;;;;;3.17;1.27;;;3.50;99.90;;;;;;10183601;28;20130;-48
2021/03/06 20:12:37;;;;;;;2.50;1.08;;;3.50;99.90;;;;;;10182246;28;20043;-48
2021/03/06 20:17:58;;;;;;;4.70;0.95;;;3.40;99.90;;;;;;10185712;28;20489;-48
2021/03/06 20:23:19;;;;;;;4.88;1.05;;;3.40;99.90;;;;;;10183515;28;20046;-48
2021/03/06 20:28:40;;;;;;;1.75;0.95;;;3.30;99.90;;;;;;10188793;28;20487;-48
2021/03/06 20:34:01;;;;;;;5.85;1.38;;;3.20;99.90;;;;;;10192586;28;20071;-48
2021/03/06 20:39:22;;;;;;;3.33;1.27;;;3.10;99.90;;;;;;10185795;28;20632;-48
2021/03/06 20:44:43;;;;;;;2.90;1.00;;;3.00;99.90;;;;;;10189863;28;20071;-48
2021/03/06 20:50:06;;;;;;;3.83;1.10;;;2.90;99.90;;;;;;10186181;28;20039;-48
2021/03/06 20:55:27;;;;;;;3.17;1.25;;;2.80;99.90;;;;;;10185602;28;20427;-48
2021/03/06 21:00:48;;;;;;;3.60;1.08;;;2.80;99.90;;;;;;10187808;28;20024;-48
2021/03/06 21:06:09;;;;;;;1.85;1.00;;;2.70;99.90;;;;;;10168393;28;20372;-48
2021/03/06 21:11:30;;;;;;;3.53;1.02;;;2.60;99.90;;;;;;10187634;28;20519;-48
2021/03/06 21:16:51;;;;;;;2.03;0.88;;;2.60;99.90;;;;;;10186945;28;20555;-48
2021/03/06 21:22:13;;;;;;;2.05;0.52;;;2.40;99.90;;;;;;10187002;28;20086;-48
2021/03/06 21:27:34;;;;;;;2.85;1.05;;;2.30;99.90;;;;;;10190780;28;20517;-48
2021/03/06 21:32:55;;;;;;;3.95;1.48;;;2.20;99.90;;;;;;10184768;28;20082;-48
2021/03/06 21:38:16;;;;;;;2.42;0.95;;;2.10;99.90;;;;;;10181052;28;20051;-48
2021/03/06 21:43:38;;;;;;;2.38;1.20;;;2.10;99.90;;;;;;10187012;28;20126;-48
2021/03/06 21:48:59;;;;;;;1.88;0.85;;;2.10;99.90;;;;;;10190238;28;20056;-48
2021/03/06 21:54:19;;;;;;;4.85;1.08;;;2.10;99.90;;;;;;10188980;28;20062;-48
2021/03/06 21:59:41;;;;;;;1.95;0.93;;;2.10;99.90;;;;;;10167454;28;20043;-48
2021/03/06 22:05:03;;;;;;;2.75;1.10;;;2.10;99.90;;;;;;10180499;28;20121;-48
2021/03/06 22:10:25;;;;;;;1.48;0.65;;;2.10;99.90;;;;;;10183898;28;20154;-48
2021/03/06 22:15:45;;;;;;;3.30;1.02;;;2.00;99.90;;;;;;10180019;28;20542;-48
2021/03/06 22:21:07;;;;;;;2.05;0.68;;;2.00;99.90;;;;;;10179091;28;20165;-48
2021/03/06 22:26:28;;;;;;;4.22;1.73;;;1.90;99.90;;;;;;10177851;28;20451;-48
2021/03/06 22:31:49;;;;;;;2.15;1.05;;;1.80;99.90;;;;;;10181943;28;21066;-49
2021/03/06 22:37:10;;;;;;;3.70;0.77;;;1.80;99.90;;;;;;10165253;28;20036;-48
2021/03/06 22:42:31;;;;;;;6.05;1.88;;;1.80;99.90;;;;;;10176869;28;20043;-48
2021/03/06 22:47:52;;;;;;;4.25;1.27;;;1.80;99.90;;;;;;10159076;28;20044;-48
2021/03/06 22:53:13;;;;;;;2.03;0.95;;;1.70;99.90;;;;;;10179756;28;20074;-48
2021/03/06 22:58:34;;;;;;;2.45;1.50;;;1.70;99.90;;;;;;10177579;28;20533;-48
2021/03/06 23:03:55;;;;;;;3.22;1.20;;;1.60;99.90;;;;;;10168956;28;20043;-48
2021/03/06 23:09:16;;;;;;;10.32;2.03;;;1.60;99.90;;;;;;10191886;28;20054;-48
2021/03/06 23:14:38;;;;;;;2.00;0.93;;;1.60;99.90;;;;;;10195842;28;20043;-48
2021/03/06 23:20:03;;;;;;;4.40;1.10;;;1.50;99.90;;;;;;10202178;28;20035;-49
2021/03/06 23:25:24;;;;;;;4.78;0.93;;;1.40;99.90;;;;;;10196614;28;20031;-48
2021/03/06 23:30:45;;;;;;;2.83;0.95;;;1.30;99.90;;;;;;10200614;28;20040;-48
2021/03/06 23:36:07;;;;;;;3.25;0.90;;;1.30;99.90;;;;;;10201983;28;20491;-48
2021/03/06 23:41:27;;;;;;;3.45;1.20;;;1.30;99.90;;;;;;10196665;28;20071;-49
2021/03/06 23:46:48;;;;;;;2.75;0.90;;;1.20;99.90;;;;;;10197161;28;21822;-48
2021/03/06 23:52:09;;;;;;;4.30;0.88;;;1.20;99.90;;;;;;10197056;28;20534;-48
2021/03/06 23:57:30;;;;;;;1.75;1.02;;;1.20;99.90;;;;;;10197556;28;20504;-48
